Time;durP1;ratioP1;P1;durP2;ratioP2;P2;SDS_P1;SDS_P2;PMS_P1;PMS_P2;Temp;Humidity;BMP_temperature;BMP_pressure;BME280_temperature;BME280_humidity;BME280_pressure;Samples;Min_cycle;Max_cycle;Signal;HPM_P1;HPM_P2
2022/07/06 00:01:40;;;;;;;;;10.25;10.00;28.10;51.30;;;;;;5097211;28;8788;-79
2022/07/06 00:04:06;;;;;;;;;16.67;13.00;28.20;51.20;;;;;;5097080;28;8783;-80
2022/07/06 00:06:32;;;;;;;;;12.33;12.33;28.10;51.10;;;;;;5097088;28;8764;-78
2022/07/06 00:08:58;;;;;;;;;12.67;10.33;28.10;51.10;;;;;;5078976;28;11463;-80
2022/07/06 00:11:24;;;;;;;;;11.00;11.00;28.10;51.40;;;;;;5097329;28;8779;-81
2022/07/06 00:13:51;;;;;;;;;11.33;11.00;28.00;51.40;;;;;;5097252;28;8767;-80
2022/07/06 00:16:17;;;;;;;;;12.00;11.00;27.80;51.80;;;;;;5097476;28;11413;-80
2022/07/06 00:18:43;;;;;;;;;13.33;13.00;27.80;52.20;;;;;;5096491;28;11556;-79
2022/07/06 00:21:09;;;;;;;;;11.67;11.67;27.70;52.20;;;;;;5096698;28;11460;-82
2022/07/06 00:23:35;;;;;;;;;13.33;12.67;27.60;53.00;;;;;;5097038;28;8940;-79
2022/07/06 00:26:01;;;;;;;;;12.33;12.00;27.50;53.40;;;;;;5096684;28;8767;-78
2022/07/06 00:28:27;;;;;;;;;13.67;12.33;27.50;53.00;;;;;;5078732;28;8783;-80
2022/07/06 00:30:53;;;;;;;;;9.33;9.33;27.50;53.20;;;;;;5096785;28;11416;-80
2022/07/06 00:33:19;;;;;;;;;13.33;13.33;27.50;53.00;;;;;;5096798;28;8776;-80
2022/07/06 00:35:45;;;;;;;;;12.33;10.67;27.50;53.00;;;;;;5096438;28;11430;-81
2022/07/06 00:38:11;;;;;;;;;10.00;10.00;27.50;53.20;;;;;;5094852;28;11442;-80
2022/07/06 00:40:37;;;;;;;;;13.00;13.00;27.20;54.00;;;;;;5096676;28;8812;-79
2022/07/06 00:43:03;;;;;;;;;12.67;12.67;27.30;53.90;;;;;;5096464;28;8748;-80
2022/07/06 00:45:29;;;;;;;;;13.33;11.67;27.40;53.90;;;;;;5096715;28;8782;-80
2022/07/06 00:47:54;;;;;;;;;14.00;14.00;27.30;53.90;;;;;;5096355;28;11444;-80
2022/07/06 00:50:21;;;;;;;;;13.00;12.00;27.40;53.80;;;;;;5096224;28;8779;-80
2022/07/06 00:52:55;;;;;;;;;14.33;13.33;27.30;53.70;;;;;;5096297;28;8763;-78
2022/07/06 00:55:26;;;;;;;;;13.67;13.00;27.20;53.90;;;;;;5096494;28;12191;-81
2022/07/06 00:57:52;;;;;;;;;10.67;10.67;27.30;53.70;;;;;;5096236;28;11425;-79
2022/07/06 01:00:22;;;;;;;;;11.67;11.67;27.40;53.50;;;;;;5096774;28;11450;-80
2022/07/06 01:02:50;;;;;;;;;11.00;11.00;27.40;53.40;;;;;;5096459;28;9455;-80
2022/07/06 01:05:17;;;;;;;;;12.00;11.33;27.30;53.70;;;;;;5096011;28;11420;-78
2022/07/06 01:07:45;;;;;;;;;11.00;11.00;27.20;53.50;;;;;;5096322;28;11400;-81
2022/07/06 01:10:12;;;;;;;;;12.00;11.00;27.10;53.90;;;;;;5095607;28;11444;-78
2022/07/06 01:12:40;;;;;;;;;12.67;12.00;27.30;53.50;;;;;;5095982;28;12186;-80
2022/07/06 01:15:12;;;;;;;;;14.00;13.67;27.30;53.30;;;;;;5096242;28;11443;-79
2022/07/06 01:17:42;;;;;;;;;12.00;12.00;27.40;53.00;;;;;;5095443;28;11503;-81
2022/07/06 01:20:17;;;;;;;;;13.33;12.67;27.40;52.90;;;;;;5096135;28;11447;-79
2022/07/06 01:22:44;;;;;;;;;12.00;12.00;27.40;53.20;;;;;;5077705;28;11454;-82
2022/07/06 01:25:10;;;;;;;;;12.33;12.00;27.30;53.10;;;;;;5095602;28;11439;-78
2022/07/06 01:27:38;;;;;;;;;14.67;14.67;27.30;53.30;;;;;;5095744;28;11409;-80
2022/07/06 01:30:12;;;;;;;;;13.67;13.67;27.30;53.40;;;;;;5078357;28;11449;-79
2022/07/06 01:32:39;;;;;;;;;14.67;14.67;27.20;53.50;;;;;;5095751;28;11472;-81
2022/07/06 01:35:06;;;;;;;;;13.00;13.00;27.20;53.80;;;;;;5095432;28;11528;-82
2022/07/06 01:37:33;;;;;;;;;13.33;13.33;27.00;54.00;;;;;;5095808;28;11450;-81
2022/07/06 01:40:00;;;;;;;;;13.67;13.67;27.10;53.80;;;;;;5095242;28;11484;-81
2022/07/06 01:42:26;;;;;;;;;14.00;14.00;27.10;53.90;;;;;;5095276;28;11425;-80
2022/07/06 01:44:52;;;;;;;;;13.33;12.33;27.00;53.80;;;;;;5095620;28;11428;-79
2022/07/06 01:47:18;;;;;;;;;12.00;11.67;26.90;54.30;;;;;;5094958;28;11432;-79
2022/07/06 01:49:44;;;;;;;;;12.33;12.33;26.80;54.70;;;;;;5095360;28;8791;-80
2022/07/06 01:52:09;;;;;;;;;13.00;13.00;26.80;55.00;;;;;;5095027;28;8764;-80
2022/07/06 01:54:35;;;;;;;;;13.33;13.33;26.80;54.50;;;;;;5095114;28;8756;-80
2022/07/06 01:57:01;;;;;;;;;12.67;12.00;26.70;54.80;;;;;;5095152;28;8783;-80
2022/07/06 01:59:27;;;;;;;;;11.67;11.67;26.60;55.00;;;;;;5077076;28;8866;-80
2022/07/06 02:01:53;;;;;;;;;11.00;11.00;26.60;55.10;;;;;;5095023;28;8764;-79
2022/07/06 02:04:21;;;;;;;;;12.67;12.67;26.50;55.40;;;;;;5095215;28;8772;-78
2022/07/06 02:06:47;;;;;;;;;12.00;12.00;26.70;54.80;;;;;;5094900;28;8784;-78
2022/07/06 02:09:13;;;;;;;;;12.33;12.33;26.70;54.50;;;;;;5095163;28;11409;-80
2022/07/06 02:11:39;;;;;;;;;13.00;13.00;26.80;54.20;;;;;;5095338;28;11411;-80
2022/07/06 02:14:05;;;;;;;;;14.67;14.00;26.70;54.30;;;;;;5095246;28;9362;-79
2022/07/06 02:16:31;;;;;;;;;13.67;13.00;26.50;55.00;;;;;;5094779;28;9452;-79
2022/07/06 02:18:57;;;;;;;;;14.00;13.00;26.60;54.90;;;;;;5094707;28;8843;-80
2022/07/06 02:21:22;;;;;;;;;9.00;9.00;26.70;54.60;;;;;;5094636;28;8792;-80
2022/07/06 02:23:48;;;;;;;;;12.00;12.00;26.70;54.30;;;;;;5093935;28;8799;-78
2022/07/06 02:26:14;;;;;;;;;11.00;11.00;26.60;54.40;;;;;;5094568;28;8852;-80
2022/07/06 02:28:40;;;;;;;;;12.33;12.33;26.50;55.70;;;;;;5094741;28;8768;-80
2022/07/06 02:31:06;;;;;;;;;11.33;11.33;26.40;55.30;;;;;;5094419;28;8870;-79
2022/07/06 02:33:31;;;;;;;;;13.33;13.33;26.30;55.70;;;;;;5076727;28;8828;-80
2022/07/06 02:35:57;;;;;;;;;12.00;11.67;26.30;55.80;;;;;;5094527;28;8796;-81
2022/07/06 02:38:23;;;;;;;;;14.00;14.00;26.40;55.30;;;;;;5094741;28;8744;-79
2022/07/06 02:40:49;;;;;;;;;11.00;11.00;26.20;56.00;;;;;;5094263;28;8811;-79
2022/07/06 02:43:15;;;;;;;;;14.00;12.33;26.20;55.50;;;;;;5094967;28;8768;-78
2022/07/06 02:45:40;;;;;;;;;12.67;12.00;26.40;55.20;;;;;;5076619;28;8775;-79
2022/07/06 02:48:06;;;;;;;;;16.00;16.00;26.30;55.40;;;;;;5094449;28;9405;-79
2022/07/06 02:50:32;;;;;;;;;14.67;14.67;26.20;55.70;;;;;;5094574;28;8795;-79
2022/07/06 02:52:58;;;;;;;;;12.00;11.00;26.10;56.00;;;;;;5076447;28;8861;-79
2022/07/06 02:55:24;;;;;;;;;11.67;11.67;26.10;55.70;;;;;;5094308;28;8882;-78
2022/07/06 02:57:50;;;;;;;;;15.67;14.33;25.90;56.60;;;;;;5094433;28;11533;-79
2022/07/06 03:00:16;;;;;;;;;13.00;12.00;25.70;57.30;;;;;;5094147;28;8857;-78
2022/07/06 03:02:42;;;;;;;;;16.00;16.00;25.60;57.50;;;;;;5094255;28;8775;-79
2022/07/06 03:05:08;;;;;;;;;15.67;15.00;25.50;57.50;;;;;;5094554;28;11512;-79
2022/07/06 03:07:34;;;;;;;;;15.33;15.33;25.20;58.80;;;;;;5094585;28;9413;-79
2022/07/06 03:10:00;;;;;;;;;14.33;14.33;25.10;59.30;;;;;;5094384;28;8774;-81
2022/07/06 03:12:26;;;;;;;;;14.67;14.67;25.20;59.30;;;;;;5094565;28;8764;-79
2022/07/06 03:14:51;;;;;;;;;13.33;13.33;25.30;58.80;;;;;;5094085;28;8756;-78
2022/07/06 03:17:17;;;;;;;;;13.33;13.33;25.30;58.90;;;;;;5093991;28;8752;-80
2022/07/06 03:19:43;;;;;;;;;15.00;13.00;25.00;60.00;;;;;;5094073;28;8800;-80
2022/07/06 03:22:09;;;;;;;;;16.67;16.67;24.80;60.70;;;;;;5094351;28;8886;-82
2022/07/06 03:24:35;;;;;;;;;18.67;18.67;25.00;59.80;;;;;;5094371;28;8887;-80
2022/07/06 03:27:00;;;;;;;;;12.33;12.33;24.90;60.30;;;;;;5094235;28;8763;-80
2022/07/06 03:29:26;;;;;;;;;12.00;12.00;24.80;60.80;;;;;;5093950;28;8774;-80
2022/07/06 03:31:52;;;;;;;;;17.00;17.00;24.80;60.80;;;;;;5076173;28;8908;-79
2022/07/06 03:34:17;;;;;;;;;17.33;16.00;25.10;59.60;;;;;;5096191;28;9401;-79
2022/07/06 03:36:43;;;;;;;;;18.00;18.00;25.40;58.20;;;;;;5097919;28;9486;-79
2022/07/06 03:39:09;;;;;;;;;18.67;18.67;25.70;57.20;;;;;;5097909;28;8874;-80
2022/07/06 03:41:35;;;;;;;;;20.33;20.33;25.70;56.70;;;;;;5097876;28;8898;-80
2022/07/06 03:44:01;;;;;;;;;18.33;18.33;25.70;56.90;;;;;;5097508;28;8776;-80
2022/07/06 03:46:28;;;;;;;;;16.67;16.67;25.70;56.90;;;;;;5097457;28;8878;-81
2022/07/06 03:48:54;;;;;;;;;18.00;17.00;25.80;56.60;;;;;;5097833;28;8810;-79
2022/07/06 03:51:20;;;;;;;;;18.67;18.67;25.80;56.40;;;;;;5097687;28;8780;-81
2022/07/06 03:53:45;;;;;;;;;17.67;17.67;25.90;56.10;;;;;;5079307;28;8856;-80
2022/07/06 03:56:30;;;;;;;;;14.33;14.00;25.90;56.10;;;;;;5097295;28;8772;-80
2022/07/06 03:58:57;;;;;;;;;15.33;15.33;25.90;56.20;;;;;;5097273;28;8860;-79
2022/07/06 04:01:23;;;;;;;;;15.67;15.67;25.70;57.20;;;;;;5097152;28;11486;-79
2022/07/06 04:03:49;;;;;;;;;13.33;13.33;25.70;56.80;;;;;;5097118;28;11440;-80
2022/07/06 04:06:15;;;;;;;;;9.33;9.33;25.70;56.90;;;;;;5097324;28;8786;-79
2022/07/06 04:08:41;;;;;;;;;15.67;15.67;25.80;56.40;;;;;;5097126;28;8744;-77
2022/07/06 04:11:07;;;;;;;;;16.33;16.33;25.50;57.20;;;;;;5097109;28;8763;-78
2022/07/06 04:13:33;;;;;;;;;14.33;13.00;25.40;57.80;;;;;;5096928;28;11441;-78
2022/07/06 04:15:59;;;;;;;;;15.00;15.00;25.40;57.90;;;;;;5097226;28;8776;-79
2022/07/06 04:18:25;;;;;;;;;15.00;15.00;25.40;58.20;;;;;;5096574;28;11587;-79
2022/07/06 04:20:51;;;;;;;;;19.33;18.00;25.40;58.00;;;;;;5097073;28;8795;-80
2022/07/06 04:23:16;;;;;;;;;16.33;15.67;25.30;58.40;;;;;;5096808;28;8775;-80
2022/07/06 04:25:42;;;;;;;;;17.67;17.67;25.20;59.30;;;;;;5097194;28;8760;-80
2022/07/06 04:28:08;;;;;;;;;17.33;17.33;24.90;60.40;;;;;;5097065;28;8807;-79
2022/07/06 04:30:34;;;;;;;;;16.00;16.00;24.90;60.50;;;;;;5096975;28;8764;-80
2022/07/06 04:33:00;;;;;;;;;13.33;13.33;25.00;60.00;;;;;;5096755;28;8771;-82
2022/07/06 04:35:26;;;;;;;;;13.33;13.33;25.00;60.30;;;;;;5078749;28;8852;-80
2022/07/06 04:37:52;;;;;;;;;19.33;18.00;24.90;60.80;;;;;;5096899;28;8805;-80
2022/07/06 04:40:18;;;;;;;;;18.00;16.33;24.80;60.80;;;;;;5096487;28;8779;-80
2022/07/06 04:42:44;;;;;;;;;18.00;18.00;24.90;61.00;;;;;;5096485;28;8747;-81
2022/07/06 04:45:10;;;;;;;;;17.00;16.33;24.70;61.50;;;;;;5095766;28;8791;-80
2022/07/06 04:47:36;;;;;;;;;17.33;16.33;24.70;61.90;;;;;;5096873;28;8787;-80
2022/07/06 04:50:03;;;;;;;;;17.33;16.67;24.60;62.20;;;;;;5096325;28;8760;-81
2022/07/06 04:52:29;;;;;;;;;15.33;15.33;24.70;61.90;;;;;;5096565;28;8772;-80
2022/07/06 04:54:55;;;;;;;;;21.00;20.00;24.80;61.70;;;;;;5096173;28;12147;-79
2022/07/06 04:57:21;;;;;;;;;16.00;16.00;24.80;61.60;;;;;;5078425;28;8760;-79
2022/07/06 04:59:47;;;;;;;;;18.00;15.67;24.80;61.70;;;;;;5096312;28;8795;-79
2022/07/06 05:02:13;;;;;;;;;16.33;16.33;24.80;61.70;;;;;;5095965;28;11439;-81
2022/07/06 05:04:39;;;;;;;;;18.33;18.33;24.90;61.40;;;;;;5096076;28;8768;-79
2022/07/06 05:07:05;;;;;;;;;16.33;16.33;24.90;61.60;;;;;;5096523;28;8763;-79
2022/07/06 05:09:31;;;;;;;;;20.00;19.33;24.60;62.30;;;;;;5095919;28;8826;-80
2022/07/06 05:11:56;;;;;;;;;17.33;17.33;24.70;62.10;;;;;;5096005;28;8752;-80
2022/07/06 05:14:22;;;;;;;;;12.67;12.67;24.80;62.00;;;;;;5096214;28;8780;-80
2022/07/06 05:16:48;;;;;;;;;19.33;19.33;24.70;62.30;;;;;;5096046;28;8852;-79
2022/07/06 05:19:14;;;;;;;;;17.33;17.33;24.70;62.10;;;;;;5095485;28;8831;-78
2022/07/06 05:21:40;;;;;;;;;18.67;18.67;24.70;62.20;;;;;;5095645;28;8799;-80
2022/07/06 05:24:06;;;;;;;;;19.00;19.00;24.70;62.20;;;;;;5095928;28;8768;-80
2022/07/06 05:26:33;;;;;;;;;18.00;18.00;24.70;60.90;;;;;;5095707;28;8894;-81
2022/07/06 05:28:58;;;;;;;;;17.67;17.67;25.00;60.10;;;;;;5095548;28;8787;-82
2022/07/06 05:31:25;;;;;;;;;19.00;19.00;25.00;60.20;;;;;;5077803;28;8788;-79
2022/07/06 05:33:50;;;;;;;;;16.67;16.67;25.00;60.30;;;;;;5095510;28;8834;-80
2022/07/06 05:36:16;;;;;;;;;18.00;17.33;25.00;60.30;;;;;;5095578;28;8807;-79
2022/07/06 05:38:42;;;;;;;;;18.33;18.33;24.90;60.90;;;;;;5077463;28;8755;-79
2022/07/06 05:41:08;;;;;;;;;14.67;14.67;25.00;60.60;;;;;;5095278;28;8807;-80
2022/07/06 05:43:37;;;;;;;;;17.00;17.00;24.90;60.40;;;;;;5095284;28;8759;-79
2022/07/06 05:46:04;;;;;;;;;18.00;16.67;24.90;60.30;;;;;;5077277;28;8803;-79
2022/07/06 05:51:14;;;;;;;;;18.67;17.00;24.60;60.50;;;;;;5095309;28;8748;-78
2022/07/06 05:53:40;;;;;;;;;17.00;17.00;24.80;59.90;;;;;;5095235;28;8752;-79
2022/07/06 05:56:06;;;;;;;;;21.00;20.00;24.90;59.90;;;;;;5095285;28;11425;-79
2022/07/06 05:58:31;;;;;;;;;16.33;16.33;24.70;59.60;;;;;;5094118;28;9394;-79
2022/07/06 06:00:57;;;;;;;;;18.00;18.00;24.90;58.70;;;;;;5095046;28;8798;-80
2022/07/06 06:03:23;;;;;;;;;17.00;17.00;25.10;59.20;;;;;;5095221;28;8833;-80
2022/07/06 06:05:49;;;;;;;;;18.67;18.67;25.00;57.70;;;;;;5095220;28;8764;-80
2022/07/06 06:08:15;;;;;;;;;14.67;14.67;24.90;57.60;;;;;;5095134;28;8760;-80
2022/07/06 06:10:41;;;;;;;;;19.67;19.33;24.60;59.10;;;;;;5094838;28;8857;-80
2022/07/06 06:13:06;;;;;;;;;17.33;17.33;24.50;59.40;;;;;;5095029;28;8756;-80
2022/07/06 06:15:33;;;;;;;;;16.00;15.67;24.70;59.00;;;;;;5094995;28;8802;-79
2022/07/06 06:17:58;;;;;;;;;10.67;10.00;24.60;59.00;;;;;;5094479;28;8839;-79
2022/07/06 06:20:24;;;;;;;;;16.33;16.33;24.60;58.10;;;;;;5094690;28;8796;-80
2022/07/06 06:22:52;;;;;;;;;17.00;16.33;24.70;57.60;;;;;;5094643;28;8802;-81
2022/07/06 06:25:33;;;;;;;;;15.33;15.33;24.70;58.30;;;;;;5094638;28;8894;-80
2022/07/06 06:27:59;;;;;;;;;16.67;16.67;24.80;56.60;;;;;;5076811;28;8807;-80
2022/07/06 06:30:25;;;;;;;;;15.00;15.00;25.00;56.20;;;;;;5094878;28;8794;-80
2022/07/06 06:32:51;;;;;;;;;16.33;16.33;25.10;54.80;;;;;;5094576;28;8771;-80
2022/07/06 06:35:17;;;;;;;;;15.33;15.33;24.90;55.90;;;;;;5094844;28;8772;-80
2022/07/06 06:37:43;;;;;;;;;16.00;16.00;24.60;56.70;;;;;;5094395;28;12192;-80
2022/07/06 06:40:09;;;;;;;;;18.67;17.33;24.60;56.30;;;;;;5094857;28;8799;-81
2022/07/06 06:42:38;;;;;;;;;18.67;16.00;24.90;55.60;;;;;;5094446;28;8771;-79
2022/07/06 06:45:05;;;;;;;;;14.00;14.00;24.70;56.20;;;;;;5094791;28;8744;-80
2022/07/06 06:47:31;;;;;;;;;17.33;17.33;24.80;56.00;;;;;;5094556;28;9441;-79
2022/07/06 06:49:57;;;;;;;;;14.00;14.00;24.70;55.90;;;;;;5094465;28;8783;-80
2022/07/06 06:52:23;;;;;;;;;14.67;14.67;24.80;55.70;;;;;;5094571;28;9425;-78
2022/07/06 06:54:49;;;;;;;;;21.67;20.00;24.90;55.80;;;;;;5094349;28;9393;-79
2022/07/06 06:57:14;;;;;;;;;16.00;15.00;25.10;54.90;;;;;;5094515;28;8790;-79
2022/07/06 06:59:40;;;;;;;;;13.67;13.67;25.40;54.20;;;;;;5094147;28;8768;-81
2022/07/06 07:02:06;;;;;;;;;14.00;14.00;25.30;54.50;;;;;;5094543;28;8763;-80
2022/07/06 07:04:32;;;;;;;;;13.67;12.67;25.20;54.30;;;;;;5094419;28;8790;-80
2022/07/06 07:06:58;;;;;;;;;14.67;14.67;25.00;55.10;;;;;;5094338;28;8772;-80
2022/07/06 07:09:23;;;;;;;;;13.67;13.67;25.00;55.20;;;;;;5096702;28;8748;-79
2022/07/06 07:11:50;;;;;;;;;16.00;16.00;25.00;55.90;;;;;;5098336;28;8768;-75
2022/07/06 07:14:15;;;;;;;;;17.33;17.33;25.30;55.10;;;;;;5098109;28;8768;-80
2022/07/06 07:16:41;;;;;;;;;11.67;11.67;25.40;54.80;;;;;;5098455;28;11432;-81
2022/07/06 07:19:07;;;;;;;;;14.33;14.33;25.30;55.30;;;;;;5097962;28;8954;-79
2022/07/06 07:21:33;;;;;;;;;15.00;15.00;25.10;55.30;;;;;;5098388;28;8810;-80
2022/07/06 07:24:02;;;;;;;;;16.00;16.00;25.20;54.60;;;;;;5100623;28;8790;-81
2022/07/06 07:26:28;;;;;;;;;12.67;12.67;25.10;54.60;;;;;;5099031;28;8759;-81
2022/07/06 07:28:53;;;;;;;;;14.00;14.00;25.30;54.30;;;;;;5098258;28;9268;-82
2022/07/06 07:31:19;;;;;;;;;13.00;13.00;25.40;53.20;;;;;;5098271;28;8768;-81
2022/07/06 07:33:45;;;;;;;;;16.00;15.00;25.10;54.10;;;;;;5098034;28;8772;-79
2022/07/06 07:36:11;;;;;;;;;12.00;12.00;24.80;55.00;;;;;;5097937;28;8817;-81
2022/07/06 07:38:36;;;;;;;;;13.00;13.00;25.10;54.50;;;;;;5097937;28;9429;-80
2022/07/06 07:41:02;;;;;;;;;15.33;15.33;25.40;53.50;;;;;;5097986;28;8857;-80
2022/07/06 07:43:28;;;;;;;;;15.67;14.00;25.70;52.90;;;;;;5097866;28;8861;-80
2022/07/06 07:45:54;;;;;;;;;12.33;12.33;25.90;52.40;;;;;;5097930;28;8836;-80
2022/07/06 07:48:20;;;;;;;;;13.33;13.33;26.10;51.80;;;;;;5097725;28;8829;-81
2022/07/06 07:50:46;;;;;;;;;11.00;11.00;26.10;51.20;;;;;;5098039;28;8791;-81
2022/07/06 07:53:11;;;;;;;;;15.67;15.00;25.90;52.00;;;;;;5097360;28;8756;-81
2022/07/06 07:55:37;;;;;;;;;14.67;14.67;26.00;51.90;;;;;;5097770;28;8821;-81
2022/07/06 07:58:04;;;;;;;;;13.67;13.67;25.90;51.00;;;;;;5097474;28;8768;-80
2022/07/06 08:00:29;;;;;;;;;14.67;14.67;25.40;52.10;;;;;;5097520;28;8902;-81
2022/07/06 08:02:55;;;;;;;;;12.00;11.33;25.30;52.50;;;;;;5097569;28;8894;-82
2022/07/06 08:05:21;;;;;;;;;14.67;14.67;25.20;53.70;;;;;;5097293;28;8771;-80
2022/07/06 08:07:47;;;;;;;;;15.67;13.00;25.30;53.30;;;;;;5097839;28;9370;-80
2022/07/06 08:10:13;;;;;;;;;12.33;12.33;25.50;52.20;;;;;;5097420;28;8771;-83
2022/07/06 08:12:39;;;;;;;;;12.00;12.00;25.70;51.70;;;;;;5097288;28;8776;-81
2022/07/06 08:15:05;;;;;;;;;14.67;13.67;25.70;51.00;;;;;;5097008;28;8755;-81
2022/07/06 08:17:31;;;;;;;;;12.67;12.00;25.70;50.60;;;;;;5096978;28;9769;-78
2022/07/06 08:19:57;;;;;;;;;14.00;13.33;25.70;50.10;;;;;;5095836;28;8783;-80
2022/07/06 08:22:24;;;;;;;;;14.00;13.33;25.80;49.80;;;;;;5096856;28;8767;-78
2022/07/06 08:24:49;;;;;;;;;12.67;12.67;25.80;48.70;;;;;;5097410;28;11392;-81
2022/07/06 08:27:16;;;;;;;;;15.33;15.33;25.90;49.20;;;;;;5096801;28;8778;-82
2022/07/06 08:29:42;;;;;;;;;14.33;14.33;26.10;49.00;;;;;;5096643;28;8756;-79
2022/07/06 08:32:07;;;;;;;;;15.67;15.67;25.90;47.90;;;;;;5096699;28;11418;-78
2022/07/06 08:34:33;;;;;;;;;15.00;15.00;25.70;48.20;;;;;;5096536;28;8759;-78
2022/07/06 08:36:59;;;;;;;;;13.00;13.00;25.60;48.80;;;;;;5096521;28;8767;-80
2022/07/06 08:39:25;;;;;;;;;16.00;15.00;25.80;48.80;;;;;;5096878;28;8779;-79
2022/07/06 08:41:51;;;;;;;;;12.67;12.67;25.70;48.80;;;;;;5078548;28;8784;-79
2022/07/06 08:44:18;;;;;;;;;12.67;12.67;25.50;48.20;;;;;;5096479;28;8768;-80
2022/07/06 08:46:45;;;;;;;;;14.67;14.67;25.40;48.60;;;;;;5096762;28;8771;-80
2022/07/06 08:49:16;;;;;;;;;12.33;12.33;25.50;49.00;;;;;;5096582;28;12130;-81
2022/07/06 08:51:43;;;;;;;;;16.00;14.67;25.70;48.90;;;;;;5096555;28;8791;-80
2022/07/06 08:54:10;;;;;;;;;14.33;14.33;26.00;48.30;;;;;;5096129;28;11544;-81
2022/07/06 08:56:37;;;;;;;;;13.67;13.67;26.20;47.60;;;;;;5096111;28;11432;-82
2022/07/06 08:59:03;;;;;;;;;16.67;16.67;26.00;47.20;;;;;;5096484;28;8791;-79
2022/07/06 09:01:29;;;;;;;;;15.00;15.00;26.10;47.10;;;;;;5095974;28;11476;-80
2022/07/06 09:03:56;;;;;;;;;9.33;9.33;26.20;47.80;;;;;;5096016;28;11613;-78
2022/07/06 09:06:26;;;;;;;;;14.00;14.00;26.50;47.70;;;;;;5096091;28;11416;-79
2022/07/06 09:08:55;;;;;;;;;11.67;11.67;26.00;47.40;;;;;;5096253;28;12156;-79
2022/07/06 09:11:25;;;;;;;;;10.67;10.67;25.60;48.30;;;;;;5095710;28;11434;-79
2022/07/06 09:13:51;;;;;;;;;14.00;14.00;26.00;48.50;;;;;;5095619;28;11454;-78
2022/07/06 09:16:17;;;;;;;;;15.00;15.00;26.20;48.30;;;;;;5095902;28;11409;-78
2022/07/06 09:18:46;;;;;;;;;14.33;14.33;26.60;47.70;;;;;;5095586;28;8825;-79
2022/07/06 09:21:24;;;;;;;;;14.00;14.00;26.90;46.70;;;;;;5095807;28;11554;-79
2022/07/06 09:23:54;;;;;;;;;11.75;11.75;27.10;46.00;;;;;;5096180;28;11500;-79
2022/07/06 09:26:20;;;;;;;;;15.25;14.75;27.30;45.60;;;;;;5095950;28;12152;-81
2022/07/06 09:28:46;;;;;;;;;15.25;15.00;27.40;45.50;;;;;;5095463;28;11426;-80
2022/07/06 09:31:13;;;;;;;;;13.25;13.25;27.30;44.80;;;;;;5095383;28;8874;-80
2022/07/06 09:33:52;;;;;;;;;12.50;12.50;27.40;45.50;;;;;;5095536;28;8776;-78
2022/07/06 09:36:47;;;;;;;;;14.33;13.00;27.20;44.80;;;;;;5095471;28;11437;-79
2022/07/06 09:39:26;;;;;;;;;14.67;14.67;26.60;45.50;;;;;;5095438;28;11455;-78
2022/07/06 09:41:54;;;;;;;;;14.33;13.33;26.70;45.50;;;;;;5095195;28;11914;-79
2022/07/06 09:44:29;;;;;;;;;11.75;11.75;26.90;45.30;;;;;;5095583;28;11416;-79
2022/07/06 09:46:57;;;;;;;;;14.67;14.67;26.90;45.10;;;;;;5095607;28;11436;-81
2022/07/06 09:49:25;;;;;;;;;11.75;11.75;26.70;45.40;;;;;;5095307;28;12207;-79
2022/07/06 09:51:54;;;;;;;;;13.33;13.33;26.80;45.20;;;;;;5095296;28;11432;-79
2022/07/06 09:54:19;;;;;;;;;15.67;14.33;26.80;44.90;;;;;;5095060;28;11416;-80
2022/07/06 09:56:50;;;;;;;;;13.00;13.00;27.10;44.40;;;;;;5094964;28;11463;-81
2022/07/06 09:59:18;;;;;;;;;17.33;16.33;27.00;43.80;;;;;;5094993;28;8748;-79
2022/07/06 10:01:44;;;;;;;;;10.67;10.33;27.10;43.40;;;;;;5094914;28;11491;-79
2022/07/06 10:04:18;;;;;;;;;12.00;12.00;27.10;43.30;;;;;;5095107;28;11516;-79
2022/07/06 10:06:44;;;;;;;;;11.00;11.00;27.10;43.00;;;;;;5095319;28;11445;-80
2022/07/06 10:09:12;;;;;;;;;13.00;13.00;27.00;44.20;;;;;;5094805;28;11439;-78
2022/07/06 10:11:50;;;;;;;;;14.50;13.50;27.40;43.70;;;;;;5095389;28;11435;-79
2022/07/06 10:14:21;;;;;;;;;11.50;11.50;27.60;43.30;;;;;;5099848;28;12205;-78
2022/07/06 10:16:48;;;;;;;;;12.67;12.67;27.60;42.70;;;;;;5095457;28;11510;-79
2022/07/06 10:19:15;;;;;;;;;15.00;15.00;27.80;42.50;;;;;;5094523;28;11488;-80
2022/07/06 10:21:42;;;;;;;;;16.33;16.33;28.00;42.30;;;;;;5094712;28;11455;-81
2022/07/06 10:24:12;;;;;;;;;16.00;16.00;28.10;41.40;;;;;;5094811;28;11430;-79
2022/07/06 10:26:38;;;;;;;;;12.75;12.75;27.80;41.10;;;;;;5094794;28;11517;-83
2022/07/06 10:29:06;;;;;;;;;15.67;15.00;27.70;41.50;;;;;;5094436;28;11451;-79
2022/07/06 10:31:34;;;;;;;;;16.33;16.33;27.50;42.00;;;;;;5095008;28;11434;-80
2022/07/06 10:34:03;;;;;;;;;20.33;18.00;27.50;42.10;;;;;;5094905;28;11447;-80
2022/07/06 10:36:29;;;;;;;;;13.25;13.25;27.60;42.30;;;;;;5094471;28;11514;-80
2022/07/06 10:38:55;;;;;;;;;13.00;13.00;27.90;42.40;;;;;;5094353;28;12137;-82
2022/07/06 10:41:37;;;;;;;;;13.75;13.75;28.10;41.00;;;;;;5076723;28;11484;-82
2022/07/06 10:44:26;;;;;;;;;13.50;13.50;28.40;40.40;;;;;;5093960;28;11394;-80
2022/07/06 10:46:59;;;;;;;;;11.00;10.25;28.50;40.40;;;;;;5094510;28;11433;-80
2022/07/06 10:49:26;;;;;;;;;11.50;11.50;28.60;40.80;;;;;;5094621;28;11530;-80
2022/07/06 10:51:56;;;;;;;;;13.25;12.25;28.70;40.10;;;;;;5094293;28;11418;-79
2022/07/06 10:54:24;;;;;;;;;10.75;10.75;28.80;40.20;;;;;;5094264;28;11414;-80
2022/07/06 10:56:51;;;;;;;;;12.00;12.00;29.00;39.70;;;;;;5094211;28;11447;-79
2022/07/06 10:59:22;;;;;;;;;11.50;11.50;29.10;38.60;;;;;;5094249;28;11400;-80
2022/07/06 11:02:16;;;;;;;;;11.25;11.25;29.10;38.90;;;;;;5094269;28;11456;-81
2022/07/06 11:04:46;;;;;;;;;14.00;14.00;29.30;38.80;;;;;;5094048;28;11410;-80
2022/07/06 11:07:15;;;;;;;;;14.25;14.25;29.50;39.10;;;;;;5076205;28;11530;-81
2022/07/06 11:09:47;;;;;;;;;10.75;10.75;29.80;38.80;;;;;;5093960;28;11516;-80
2022/07/06 11:12:20;;;;;;;;;12.50;12.50;29.60;38.40;;;;;;5094349;28;11445;-81
2022/07/06 11:14:48;;;;;;;;;11.00;11.00;29.50;39.30;;;;;;5094013;28;11433;-80
2022/07/06 11:17:14;;;;;;;;;13.00;12.25;29.40;39.10;;;;;;5094028;28;11530;-80
2022/07/06 11:19:57;;;;;;;;;14.00;13.25;29.60;39.00;;;;;;5093974;28;11484;-80
2022/07/06 11:22:26;;;;;;;;;12.25;12.25;29.80;38.20;;;;;;5094175;28;11496;-79
2022/07/06 11:24:52;;;;;;;;;9.00;9.00;29.80;38.00;;;;;;5076004;28;11519;-81
2022/07/06 11:27:22;;;;;;;;;10.50;10.50;29.70;37.60;;;;;;5093952;28;11513;-80
2022/07/06 11:29:47;;;;;;;;;12.75;12.75;29.40;38.80;;;;;;5094155;28;12152;-79
2022/07/06 11:32:14;;;;;;;;;12.25;12.25;29.60;38.60;;;;;;5094030;28;11417;-80
2022/07/06 11:34:42;;;;;;;;;14.00;14.00;30.00;38.00;;;;;;5093802;28;8780;-80
2022/07/06 11:37:11;;;;;;;;;13.00;13.00;30.30;37.60;;;;;;5093715;28;11441;-81
2022/07/06 11:39:41;;;;;;;;;14.00;14.00;30.60;36.70;;;;;;5093746;28;11501;-81
2022/07/06 11:42:09;;;;;;;;;10.00;10.00;31.10;36.50;;;;;;5094246;28;11451;-80
2022/07/06 11:44:37;;;;;;;;;12.25;11.50;31.40;35.10;;;;;;5093968;28;12046;-79
2022/07/06 11:47:04;;;;;;;;;11.00;11.00;32.00;33.40;;;;;;5093845;28;11414;-80
2022/07/06 11:49:31;;;;;;;;;10.25;10.25;31.50;33.90;;;;;;5094059;28;11427;-81
2022/07/06 11:51:57;;;;;;;;;13.00;13.00;32.10;33.60;;;;;;5075884;28;11416;-81
2022/07/06 11:54:24;;;;;;;;;10.00;10.00;32.80;33.20;;;;;;5093704;28;11500;-82
2022/07/06 11:56:52;;;;;;;;;12.00;10.50;34.00;31.70;;;;;;5096631;28;8768;-82
2022/07/06 11:59:29;;;;;;;;;11.00;11.00;33.90;30.60;;;;;;5097340;28;11430;-82
2022/07/06 12:02:09;;;;;;;;;11.00;11.00;34.40;30.90;;;;;;5097318;28;11443;-83
2022/07/06 12:04:37;;;;;;;;;8.00;8.00;35.90;29.80;;;;;;5097819;28;11432;-80
2022/07/06 12:07:05;;;;;;;;;9.50;9.50;37.10;28.60;;;;;;5097235;28;11421;-80
2022/07/06 12:09:33;;;;;;;;;9.50;9.50;38.30;27.30;;;;;;5097350;28;11406;-84
2022/07/06 12:12:02;;;;;;;;;11.00;11.00;39.00;26.80;;;;;;5097067;28;11411;-80
2022/07/06 12:14:28;;;;;;;;;9.00;9.00;38.10;25.60;;;;;;5097177;28;11437;-79
2022/07/06 12:16:54;;;;;;;;;7.50;7.50;37.00;27.00;;;;;;5097112;28;11398;-80
2022/07/06 12:19:24;;;;;;;;;8.00;8.00;36.80;28.00;;;;;;5096667;28;12111;-83
2022/07/06 12:21:52;;;;;;;;;9.50;9.50;36.90;27.80;;;;;;5096610;28;11573;-79
2022/07/06 12:24:23;;;;;;;;;5.75;5.75;37.20;27.40;;;;;;5097089;28;11374;-79
2022/07/06 12:26:51;;;;;;;;;9.50;9.50;37.30;26.70;;;;;;5097123;28;11480;-82
2022/07/06 12:29:17;;;;;;;;;7.25;7.25;37.30;27.20;;;;;;5096899;28;12067;-79
2022/07/06 12:31:54;;;;;;;;;7.25;7.25;37.30;27.00;;;;;;5096724;28;11396;-80
2022/07/06 12:34:21;;;;;;;;;8.75;8.75;37.10;27.30;;;;;;5096522;28;11396;-82
2022/07/06 12:36:49;;;;;;;;;7.50;7.50;38.30;26.70;;;;;;5096732;28;11398;-79